sensor_id;sensor_type;location;lat;lon;timestamp;pressure;altitude;pressure_sealevel;temperature;humidity
60258;BME280;46115;44.484;11.314;2023-03-21T00:02:56;100682.16;;;8.66;100.00
60258;BME280;46115;44.484;11.314;2023-03-21T00:06:58;100668.59;;;8.54;100.00
60258;BME280;46115;44.484;11.314;2023-03-21T00:11:03;100660.69;;;8.54;100.00
60258;BME280;46115;44.484;11.314;2023-03-21T00:15:07;100672.84;;;8.58;100.00
60258;BME280;46115;44.484;11.314;2023-03-21T00:19:09;100669.53;;;8.53;100.00
60258;BME280;46115;44.484;11.314;2023-03-21T00:23:13;100663.09;;;8.60;100.00
60258;BME280;46115;44.484;11.314;2023-03-21T00:27:17;100665.00;;;8.56;100.00
60258;BME280;46115;44.484;11.314;2023-03-21T00:31:20;100665.72;;;8.60;100.00
60258;BME280;46115;44.484;11.314;2023-03-21T00:35:24;100656.97;;;8.59;100.00
60258;BME280;46115;44.484;11.314;2023-03-21T00:39:26;100649.75;;;8.64;100.00
60258;BME280;46115;44.484;11.314;2023-03-21T00:43:29;100657.38;;;8.72;100.00
60258;BME280;46115;44.484;11.314;2023-03-21T00:47:32;100647.03;;;8.66;100.00
60258;BME280;46115;44.484;11.314;2023-03-21T00:51:35;100649.53;;;8.70;100.00
60258;BME280;46115;44.484;11.314;2023-03-21T00:55:38;100648.09;;;8.62;100.00
60258;BME280;46115;44.484;11.314;2023-03-21T00:59:42;100640.47;;;8.54;100.00
60258;BME280;46115;44.484;11.314;2023-03-21T01:03:45;100637.44;;;8.41;100.00
60258;BME280;46115;44.484;11.314;2023-03-21T01:07:51;100628.13;;;8.31;100.00
60258;BME280;46115;44.484;11.314;2023-03-21T01:11:53;100625.66;;;8.27;100.00
60258;BME280;46115;44.484;11.314;2023-03-21T01:15:56;100609.13;;;8.23;100.00
60258;BME280;46115;44.484;11.314;2023-03-21T01:19:59;100610.50;;;8.10;100.00
60258;BME280;46115;44.484;11.314;2023-03-21T01:24:02;100609.34;;;8.17;100.00
60258;BME280;46115;44.484;11.314;2023-03-21T01:28:05;100605.06;;;8.14;100.00
60258;BME280;46115;44.484;11.314;2023-03-21T01:32:09;100601.44;;;8.17;100.00
60258;BME280;46115;44.484;11.314;2023-03-21T01:36:14;100596.19;;;8.17;100.00
60258;BME280;46115;44.484;11.314;2023-03-21T01:40:20;100590.38;;;8.31;100.00
60258;BME280;46115;44.484;11.314;2023-03-21T01:44:24;100580.69;;;8.33;100.00
60258;BME280;46115;44.484;11.314;2023-03-21T01:48:29;100587.28;;;8.44;100.00
60258;BME280;46115;44.484;11.314;2023-03-21T01:52:35;100579.56;;;8.40;100.00
60258;BME280;46115;44.484;11.314;2023-03-21T01:56:47;100579.91;;;8.29;100.00
60258;BME280;46115;44.484;11.314;2023-03-21T02:00:51;100585.63;;;8.42;100.00
60258;BME280;46115;44.484;11.314;2023-03-21T02:05:07;100582.69;;;8.50;100.00
60258;BME280;46115;44.484;11.314;2023-03-21T02:09:13;100578.53;;;8.44;100.00
60258;BME280;46115;44.484;11.314;2023-03-21T02:13:17;100576.88;;;8.41;100.00
60258;BME280;46115;44.484;11.314;2023-03-21T02:17:27;100577.09;;;8.35;100.00
60258;BME280;46115;44.484;11.314;2023-03-21T02:21:59;100569.03;;;8.40;100.00
60258;BME280;46115;44.484;11.314;2023-03-21T02:26:25;100572.69;;;8.36;100.00
60258;BME280;46115;44.484;11.314;2023-03-21T02:31:02;100561.38;;;8.56;100.00
60258;BME280;46115;44.484;11.314;2023-03-21T02:35:24;100567.75;;;8.50;100.00
60258;BME280;46115;44.484;11.314;2023-03-21T02:39:39;100563.22;;;8.54;100.00
60258;BME280;46115;44.484;11.314;2023-03-21T02:43:47;100565.00;;;8.53;100.00
60258;BME280;46115;44.484;11.314;2023-03-21T02:47:57;100561.25;;;8.59;100.00
60258;BME280;46115;44.484;11.314;2023-03-21T02:52:02;100558.63;;;8.59;100.00
60258;BME280;46115;44.484;11.314;2023-03-21T02:56:08;100554.06;;;8.40;100.00
60258;BME280;46115;44.484;11.314;2023-03-21T03:00:18;100530.97;;;8.24;100.00
60258;BME280;46115;44.484;11.314;2023-03-21T03:04:25;100547.69;;;8.23;100.00
60258;BME280;46115;44.484;11.314;2023-03-21T03:08:35;100549.88;;;8.11;100.00
60258;BME280;46115;44.484;11.314;2023-03-21T03:12:49;100545.72;;;8.06;100.00
60258;BME280;46115;44.484;11.314;2023-03-21T03:17:04;100538.19;;;7.95;100.00
60258;BME280;46115;44.484;11.314;2023-03-21T03:21:16;100541.00;;;7.91;100.00
60258;BME280;46115;44.484;11.314;2023-03-21T03:25:23;100537.78;;;7.82;100.00
60258;BME280;46115;44.484;11.314;2023-03-21T03:29:31;100536.06;;;7.81;100.00
60258;BME280;46115;44.484;11.314;2023-03-21T03:33:38;100536.59;;;7.91;100.00
60258;BME280;46115;44.484;11.314;2023-03-21T03:37:44;100530.69;;;7.85;100.00
60258;BME280;46115;44.484;11.314;2023-03-21T03:41:52;100531.09;;;7.74;100.00
60258;BME280;46115;44.484;11.314;2023-03-21T03:46:02;100534.81;;;7.68;100.00
60258;BME280;46115;44.484;11.314;2023-03-21T03:50:13;100539.22;;;7.68;100.00
60258;BME280;46115;44.484;11.314;2023-03-21T03:54:22;100537.75;;;7.59;100.00
60258;BME280;46115;44.484;11.314;2023-03-21T03:58:28;100541.91;;;7.66;100.00
60258;BME280;46115;44.484;11.314;2023-03-21T04:02:33;100542.31;;;7.54;100.00
60258;BME280;46115;44.484;11.314;2023-03-21T04:06:37;100538.66;;;7.58;100.00
60258;BME280;46115;44.484;11.314;2023-03-21T04:10:41;100536.34;;;7.49;100.00
60258;BME280;46115;44.484;11.314;2023-03-21T04:14:45;100536.47;;;7.46;100.00
60258;BME280;46115;44.484;11.314;2023-03-21T04:18:49;100536.59;;;7.43;100.00
60258;BME280;46115;44.484;11.314;2023-03-21T04:22:53;100533.19;;;7.39;100.00
60258;BME280;46115;44.484;11.314;2023-03-21T04:26:56;100534.75;;;7.45;100.00
60258;BME280;46115;44.484;11.314;2023-03-21T04:31:16;100518.28;;;7.40;100.00
60258;BME280;46115;44.484;11.314;2023-03-21T04:35:24;100530.75;;;7.58;100.00
60258;BME280;46115;44.484;11.314;2023-03-21T04:39:27;100529.78;;;7.61;100.00
60258;BME280;46115;44.484;11.314;2023-03-21T04:43:29;100535.84;;;7.63;100.00
60258;BME280;46115;44.484;11.314;2023-03-21T04:47:32;100536.09;;;7.57;100.00
60258;BME280;46115;44.484;11.314;2023-03-21T04:51:36;100541.50;;;7.52;100.00
60258;BME280;46115;44.484;11.314;2023-03-21T04:55:43;100538.28;;;7.44;100.00
60258;BME280;46115;44.484;11.314;2023-03-21T04:59:45;100539.81;;;7.25;100.00
60258;BME280;46115;44.484;11.314;2023-03-21T05:03:49;100532.75;;;7.27;100.00
60258;BME280;46115;44.484;11.314;2023-03-21T05:07:52;100532.97;;;7.20;100.00
60258;BME280;46115;44.484;11.314;2023-03-21T05:11:55;100539.69;;;7.29;100.00
60258;BME280;46115;44.484;11.314;2023-03-21T05:15:57;100536.28;;;7.26;100.00
60258;BME280;46115;44.484;11.314;2023-03-21T05:20:00;100535.38;;;7.27;100.00
60258;BME280;46115;44.484;11.314;2023-03-21T05:24:04;100535.31;;;7.30;100.00
60258;BME280;46115;44.484;11.314;2023-03-21T05:28:12;100532.81;;;7.25;100.00
60258;BME280;46115;44.484;11.314;2023-03-21T05:32:18;100546.75;;;7.27;100.00
60258;BME280;46115;44.484;11.314;2023-03-21T05:36:21;100539.28;;;7.15;100.00
60258;BME280;46115;44.484;11.314;2023-03-21T05:40:25;100565.03;;;7.32;100.00
60258;BME280;46115;44.484;11.314;2023-03-21T05:44:31;100577.22;;;7.34;100.00
60258;BME280;46115;44.484;11.314;2023-03-21T05:48:36;100575.28;;;7.39;100.00
60258;BME280;46115;44.484;11.314;2023-03-21T05:52:50;100580.75;;;7.33;100.00
60258;BME280;46115;44.484;11.314;2023-03-21T05:56:55;100571.91;;;7.36;100.00
60258;BME280;46115;44.484;11.314;2023-03-21T06:01:18;100570.88;;;7.40;100.00
60258;BME280;46115;44.484;11.314;2023-03-21T06:05:28;100579.09;;;7.56;100.00
60258;BME280;46115;44.484;11.314;2023-03-21T06:09:32;100583.13;;;7.66;100.00
60258;BME280;46115;44.484;11.314;2023-03-21T06:13:38;100588.81;;;7.78;100.00
60258;BME280;46115;44.484;11.314;2023-03-21T06:17:41;100584.28;;;8.07;100.00
60258;BME280;46115;44.484;11.314;2023-03-21T06:21:46;100592.78;;;8.38;100.00
60258;BME280;46115;44.484;11.314;2023-03-21T06:25:48;100597.41;;;8.55;99.73
60258;BME280;46115;44.484;11.314;2023-03-21T06:29:53;100599.06;;;9.01;98.21
60258;BME280;46115;44.484;11.314;2023-03-21T06:33:56;100596.09;;;8.89;97.76
60258;BME280;46115;44.484;11.314;2023-03-21T06:37:59;100594.19;;;9.14;96.70
60258;BME280;46115;44.484;11.314;2023-03-21T06:42:06;100578.25;;;9.37;94.14
60258;BME280;46115;44.484;11.314;2023-03-21T06:46:10;100595.88;;;9.37;93.77
60258;BME280;46115;44.484;11.314;2023-03-21T06:50:14;100603.31;;;9.68;93.24
60258;BME280;46115;44.484;11.314;2023-03-21T06:54:19;100598.31;;;9.82;92.10
60258;BME280;46115;44.484;11.314;2023-03-21T06:58:34;100599.78;;;10.28;91.02
60258;BME280;46115;44.484;11.314;2023-03-21T07:02:39;100598.31;;;10.42;88.99
60258;BME280;46115;44.484;11.314;2023-03-21T07:06:49;100600.00;;;10.80;88.23
60258;BME280;46115;44.484;11.314;2023-03-21T07:10:55;100606.91;;;11.02;87.87
60258;BME280;46115;44.484;11.314;2023-03-21T07:14:58;100609.94;;;11.47;85.29
60258;BME280;46115;44.484;11.314;2023-03-21T07:19:02;100607.41;;;12.13;83.11
60258;BME280;46115;44.484;11.314;2023-03-21T07:23:06;100613.34;;;12.18;81.47
60258;BME280;46115;44.484;11.314;2023-03-21T07:27:08;100616.19;;;12.31;82.02
60258;BME280;46115;44.484;11.314;2023-03-21T07:31:12;100608.25;;;12.78;79.87
60258;BME280;46115;44.484;11.314;2023-03-21T07:35:17;100613.19;;;13.16;79.74
60258;BME280;46115;44.484;11.314;2023-03-21T07:39:19;100607.94;;;13.76;75.96
60258;BME280;46115;44.484;11.314;2023-03-21T07:43:26;100619.63;;;15.02;73.31
60258;BME280;46115;44.484;11.314;2023-03-21T07:47:28;100620.72;;;14.42;72.70
60258;BME280;46115;44.484;11.314;2023-03-21T07:51:32;100620.06;;;15.08;71.12
60258;BME280;46115;44.484;11.314;2023-03-21T07:55:35;100622.78;;;16.00;68.67
60258;BME280;46115;44.484;11.314;2023-03-21T07:59:38;100629.34;;;17.55;63.24
60258;BME280;46115;44.484;11.314;2023-03-21T08:03:40;100625.38;;;16.89;64.94
60258;BME280;46115;44.484;11.314;2023-03-21T08:07:44;100627.28;;;17.59;64.21
60258;BME280;46115;44.484;11.314;2023-03-21T08:11:47;100630.56;;;17.51;62.22
60258;BME280;46115;44.484;11.314;2023-03-21T08:15:49;100622.97;;;18.04;59.54
60258;BME280;46115;44.484;11.314;2023-03-21T08:19:52;100637.50;;;17.54;59.57
60258;BME280;46115;44.484;11.314;2023-03-21T08:23:56;100625.69;;;19.69;54.91
60258;BME280;46115;44.484;11.314;2023-03-21T08:27:58;100625.69;;;18.82;55.98
60258;BME280;46115;44.484;11.314;2023-03-21T08:32:00;100632.53;;;21.25;49.85
60258;BME280;46115;44.484;11.314;2023-03-21T08:36:05;100638.09;;;20.11;50.10
60258;BME280;46115;44.484;11.314;2023-03-21T08:40:11;100624.09;;;20.90;47.96
60258;BME280;46115;44.484;11.314;2023-03-21T08:44:14;100627.34;;;21.03;48.33
60258;BME280;46115;44.484;11.314;2023-03-21T08:48:17;100632.97;;;22.45;46.16
60258;BME280;46115;44.484;11.314;2023-03-21T08:52:20;100631.88;;;23.65;43.20
60258;BME280;46115;44.484;11.314;2023-03-21T08:56:23;100628.75;;;24.81;40.17
60258;BME280;46115;44.484;11.314;2023-03-21T09:00:27;100622.50;;;24.21;41.33
60258;BME280;46115;44.484;11.314;2023-03-21T09:04:29;100621.72;;;24.03;41.08
60258;BME280;46115;44.484;11.314;2023-03-21T09:08:32;100623.34;;;26.46;37.74
60258;BME280;46115;44.484;11.314;2023-03-21T09:12:36;100629.00;;;26.75;36.74
60258;BME280;46115;44.484;11.314;2023-03-21T09:16:38;100630.34;;;27.18;35.55
60258;BME280;46115;44.484;11.314;2023-03-21T09:20:41;100630.16;;;26.01;37.21
60258;BME280;46115;44.484;11.314;2023-03-21T09:24:45;100638.34;;;28.03;33.81
60258;BME280;46115;44.484;11.314;2023-03-21T09:28:49;100647.38;;;30.00;30.96
60258;BME280;46115;44.484;11.314;2023-03-21T09:32:53;100643.47;;;30.65;30.41
60258;BME280;46115;44.484;11.314;2023-03-21T09:36:55;100637.16;;;29.60;31.86
60258;BME280;46115;44.484;11.314;2023-03-21T09:41:05;100621.31;;;29.12;32.40
60258;BME280;46115;44.484;11.314;2023-03-21T09:45:15;100613.44;;;28.52;32.42
60258;BME280;46115;44.484;11.314;2023-03-21T09:49:22;100624.63;;;28.19;33.89
60258;BME280;46115;44.484;11.314;2023-03-21T09:53:34;100636.31;;;29.59;30.41
60258;BME280;46115;44.484;11.314;2023-03-21T09:57:41;100627.53;;;27.57;34.24
60258;BME280;46115;44.484;11.314;2023-03-21T10:01:47;100621.38;;;26.07;37.15
60258;BME280;46115;44.484;11.314;2023-03-21T10:05:51;100609.31;;;24.78;38.71
60258;BME280;46115;44.484;11.314;2023-03-21T10:09:59;100611.69;;;24.39;37.72
60258;BME280;46115;44.484;11.314;2023-03-21T10:14:06;100608.28;;;23.67;40.57
60258;BME280;46115;44.484;11.314;2023-03-21T10:18:20;100610.59;;;22.71;43.58
60258;BME280;46115;44.484;11.314;2023-03-21T10:22:23;100599.38;;;21.92;44.11
60258;BME280;46115;44.484;11.314;2023-03-21T10:26:27;100591.63;;;21.41;44.24
60258;BME280;46115;44.484;11.314;2023-03-21T10:30:39;100586.47;;;21.96;44.63
60258;BME280;46115;44.484;11.314;2023-03-21T10:34:47;100589.22;;;21.47;44.46
60258;BME280;46115;44.484;11.314;2023-03-21T10:38:53;100581.75;;;21.51;45.23
60258;BME280;46115;44.484;11.314;2023-03-21T10:43:35;100567.38;;;20.93;46.03
60258;BME280;46115;44.484;11.314;2023-03-21T10:47:38;100565.75;;;20.61;46.91
60258;BME280;46115;44.484;11.314;2023-03-21T10:51:43;100572.56;;;20.75;47.40
60258;BME280;46115;44.484;11.314;2023-03-21T10:55:51;100566.16;;;20.47;48.18
60258;BME280;46115;44.484;11.314;2023-03-21T10:59:58;100552.59;;;20.28;48.20
60258;BME280;46115;44.484;11.314;2023-03-21T11:04:06;100562.34;;;20.29;49.02
60258;BME280;46115;44.484;11.314;2023-03-21T11:08:13;100551.91;;;20.05;47.23
60258;BME280;46115;44.484;11.314;2023-03-21T11:12:17;100553.75;;;20.35;47.80
60258;BME280;46115;44.484;11.314;2023-03-21T11:16:23;100553.84;;;19.72;48.27
60258;BME280;46115;44.484;11.314;2023-03-21T11:20:29;100545.81;;;19.72;48.75
60258;BME280;46115;44.484;11.314;2023-03-21T11:24:34;100545.66;;;19.74;48.42
60258;BME280;46115;44.484;11.314;2023-03-21T11:28:39;100538.47;;;19.74;49.37
60258;BME280;46115;44.484;11.314;2023-03-21T11:32:42;100529.84;;;19.50;47.68
60258;BME280;46115;44.484;11.314;2023-03-21T11:36:49;100534.63;;;19.46;47.73
60258;BME280;46115;44.484;11.314;2023-03-21T11:40:57;100527.41;;;19.26;48.82
60258;BME280;46115;44.484;11.314;2023-03-21T11:45:10;100520.66;;;19.31;50.05
60258;BME280;46115;44.484;11.314;2023-03-21T11:49:13;100519.75;;;19.42;49.95
60258;BME280;46115;44.484;11.314;2023-03-21T11:53:22;100514.75;;;19.49;50.24
60258;BME280;46115;44.484;11.314;2023-03-21T11:57:34;100515.25;;;19.43;50.14
60258;BME280;46115;44.484;11.314;2023-03-21T12:01:48;100505.50;;;19.42;50.94
60258;BME280;46115;44.484;11.314;2023-03-21T12:06:00;100491.72;;;19.67;49.89
60258;BME280;46115;44.484;11.314;2023-03-21T12:10:25;100480.47;;;19.52;50.19
60258;BME280;46115;44.484;11.314;2023-03-21T12:14:36;100480.69;;;19.60;50.66
60258;BME280;46115;44.484;11.314;2023-03-21T12:19:00;100474.44;;;19.39;49.33
60258;BME280;46115;44.484;11.314;2023-03-21T12:23:18;100465.19;;;19.43;51.18
60258;BME280;46115;44.484;11.314;2023-03-21T12:27:33;100455.44;;;18.57;50.23
60258;BME280;46115;44.484;11.314;2023-03-21T12:31:54;100454.66;;;19.10;50.54
60258;BME280;46115;44.484;11.314;2023-03-21T12:36:08;100434.44;;;19.47;50.33
60258;BME280;46115;44.484;11.314;2023-03-21T12:40:24;100440.31;;;18.99;50.08
60258;BME280;46115;44.484;11.314;2023-03-21T12:44:31;100424.84;;;19.24;49.69
60258;BME280;46115;44.484;11.314;2023-03-21T12:48:41;100415.94;;;19.23;50.96
60258;BME280;46115;44.484;11.314;2023-03-21T12:52:47;100416.28;;;18.88;49.34
60258;BME280;46115;44.484;11.314;2023-03-21T12:56:56;100410.28;;;19.17;49.12
60258;BME280;46115;44.484;11.314;2023-03-21T13:01:02;100410.72;;;19.22;50.92
60258;BME280;46115;44.484;11.314;2023-03-21T13:05:16;100405.56;;;19.30;50.08
60258;BME280;46115;44.484;11.314;2023-03-21T13:09:25;100399.44;;;19.18;49.38
60258;BME280;46115;44.484;11.314;2023-03-21T13:13:33;100376.81;;;18.90;49.26
60258;BME280;46115;44.484;11.314;2023-03-21T13:17:41;100386.16;;;18.43;50.11
60258;BME280;46115;44.484;11.314;2023-03-21T13:21:51;100362.97;;;18.21;51.28
60258;BME280;46115;44.484;11.314;2023-03-21T13:25:56;100381.84;;;19.05;50.06
60258;BME280;46115;44.484;11.314;2023-03-21T13:30:00;100377.94;;;18.56;50.67
60258;BME280;46115;44.484;11.314;2023-03-21T13:34:08;100375.19;;;18.78;49.84
60258;BME280;46115;44.484;11.314;2023-03-21T13:38:14;100370.09;;;18.32;50.21
60258;BME280;46115;44.484;11.314;2023-03-21T13:42:24;100364.72;;;18.43;50.90
60258;BME280;46115;44.484;11.314;2023-03-21T13:46:36;100357.56;;;18.44;51.21
60258;BME280;46115;44.484;11.314;2023-03-21T13:50:51;100354.78;;;18.66;50.40
60258;BME280;46115;44.484;11.314;2023-03-21T13:54:56;100355.78;;;18.54;50.70
60258;BME280;46115;44.484;11.314;2023-03-21T13:59:01;100341.63;;;18.74;50.04
60258;BME280;46115;44.484;11.314;2023-03-21T14:03:07;100336.84;;;18.78;50.34
60258;BME280;46115;44.484;11.314;2023-03-21T14:07:12;100342.22;;;18.02;50.87
60258;BME280;46115;44.484;11.314;2023-03-21T14:11:19;100343.06;;;18.46;50.64
60258;BME280;46115;44.484;11.314;2023-03-21T14:15:24;100344.00;;;17.81;50.37
60258;BME280;46115;44.484;11.314;2023-03-21T14:19:29;100337.16;;;17.88;51.82
60258;BME280;46115;44.484;11.314;2023-03-21T14:23:32;100332.69;;;18.21;50.68
60258;BME280;46115;44.484;11.314;2023-03-21T14:27:35;100322.31;;;18.27;51.00
60258;BME280;46115;44.484;11.314;2023-03-21T14:31:38;100294.47;;;17.98;50.92
60258;BME280;46115;44.484;11.314;2023-03-21T14:35:41;100312.44;;;18.39;50.08
60258;BME280;46115;44.484;11.314;2023-03-21T14:39:44;100317.91;;;18.37;50.71
60258;BME280;46115;44.484;11.314;2023-03-21T14:44:00;100311.34;;;18.10;49.65
60258;BME280;46115;44.484;11.314;2023-03-21T14:48:05;100308.06;;;18.06;50.49
60258;BME280;46115;44.484;11.314;2023-03-21T14:52:10;100300.16;;;18.36;50.27
60258;BME280;46115;44.484;11.314;2023-03-21T14:56:17;100296.53;;;17.94;50.46
60258;BME280;46115;44.484;11.314;2023-03-21T15:00:25;100295.38;;;18.19;50.19
60258;BME280;46115;44.484;11.314;2023-03-21T15:04:30;100302.94;;;18.03;51.26
60258;BME280;46115;44.484;11.314;2023-03-21T15:08:33;100260.16;;;17.71;51.09
60258;BME280;46115;44.484;11.314;2023-03-21T15:12:35;100300.78;;;18.08;51.63
60258;BME280;46115;44.484;11.314;2023-03-21T15:16:39;100285.06;;;18.35;51.21
60258;BME280;46115;44.484;11.314;2023-03-21T15:20:42;100291.31;;;18.04;50.50
60258;BME280;46115;44.484;11.314;2023-03-21T15:24:50;100290.84;;;17.88;50.35
60258;BME280;46115;44.484;11.314;2023-03-21T15:28:55;100285.56;;;18.08;50.07
60258;BME280;46115;44.484;11.314;2023-03-21T15:33:05;100286.41;;;18.09;50.21
60258;BME280;46115;44.484;11.314;2023-03-21T15:37:15;100282.63;;;18.12;50.19
60258;BME280;46115;44.484;11.314;2023-03-21T15:41:26;100270.75;;;18.04;50.75
60258;BME280;46115;44.484;11.314;2023-03-21T15:45:29;100270.59;;;17.74;49.83
60258;BME280;46115;44.484;11.314;2023-03-21T15:49:39;100259.75;;;17.64;51.14
60258;BME280;46115;44.484;11.314;2023-03-21T15:53:42;100265.38;;;17.50;51.53
60258;BME280;46115;44.484;11.314;2023-03-21T15:57:45;100257.94;;;17.65;51.16
60258;BME280;46115;44.484;11.314;2023-03-21T16:01:48;100253.94;;;17.59;51.67
60258;BME280;46115;44.484;11.314;2023-03-21T16:06:05;100250.72;;;17.44;52.36
60258;BME280;46115;44.484;11.314;2023-03-21T16:10:28;100243.53;;;17.45;52.41
60258;BME280;46115;44.484;11.314;2023-03-21T16:14:31;100247.75;;;17.59;51.89
60258;BME280;46115;44.484;11.314;2023-03-21T16:18:34;100253.94;;;17.59;53.05
60258;BME280;46115;44.484;11.314;2023-03-21T16:22:39;100255.19;;;17.44;54.39
60258;BME280;46115;44.484;11.314;2023-03-21T16:26:43;100261.53;;;17.21;55.69
60258;BME280;46115;44.484;11.314;2023-03-21T16:30:47;100259.22;;;17.16;56.52
60258;BME280;46115;44.484;11.314;2023-03-21T16:34:50;100247.31;;;17.31;56.13
60258;BME280;46115;44.484;11.314;2023-03-21T16:38:55;100250.25;;;16.95;57.72
60258;BME280;46115;44.484;11.314;2023-03-21T16:42:58;100248.53;;;16.94;56.25
60258;BME280;46115;44.484;11.314;2023-03-21T16:47:01;100251.09;;;16.84;57.23
60258;BME280;46115;44.484;11.314;2023-03-21T16:51:03;100253.53;;;16.87;56.50
60258;BME280;46115;44.484;11.314;2023-03-21T16:55:08;100253.50;;;16.76;58.61
60258;BME280;46115;44.484;11.314;2023-03-21T16:59:11;100261.09;;;16.58;60.07
60258;BME280;46115;44.484;11.314;2023-03-21T17:03:15;100223.59;;;16.60;58.76
60258;BME280;46115;44.484;11.314;2023-03-21T17:07:19;100262.25;;;16.67;60.05
60258;BME280;46115;44.484;11.314;2023-03-21T17:11:25;100256.94;;;16.54;59.70
60258;BME280;46115;44.484;11.314;2023-03-21T17:15:31;100256.59;;;16.47;61.13
60258;BME280;46115;44.484;11.314;2023-03-21T17:19:33;100256.69;;;16.46;61.18
60258;BME280;46115;44.484;11.314;2023-03-21T17:23:36;100254.34;;;16.30;61.57
60258;BME280;46115;44.484;11.314;2023-03-21T17:27:40;100259.78;;;16.29;61.44
60258;BME280;46115;44.484;11.314;2023-03-21T17:31:43;100250.75;;;16.07;62.22
60258;BME280;46115;44.484;11.314;2023-03-21T17:35:48;100253.44;;;15.83;64.47
60258;BME280;46115;44.484;11.314;2023-03-21T17:39:50;100249.47;;;15.89;63.33
60258;BME280;46115;44.484;11.314;2023-03-21T17:43:54;100243.88;;;15.92;63.34
60258;BME280;46115;44.484;11.314;2023-03-21T17:47:56;100247.81;;;15.99;62.44
60258;BME280;46115;44.484;11.314;2023-03-21T17:51:59;100242.50;;;15.75;63.60
60258;BME280;46115;44.484;11.314;2023-03-21T17:56:01;100240.00;;;15.85;62.52
60258;BME280;46115;44.484;11.314;2023-03-21T18:00:08;100243.00;;;15.80;63.14
60258;BME280;46115;44.484;11.314;2023-03-21T23:06:09;100325.59;;;11.99;79.83
60258;BME280;46115;44.484;11.314;2023-03-21T23:10:12;100330.00;;;12.14;80.56
60258;BME280;46115;44.484;11.314;2023-03-21T23:14:15;100331.16;;;11.94;79.89
60258;BME280;46115;44.484;11.314;2023-03-21T23:18:18;100322.06;;;11.84;80.25
60258;BME280;46115;44.484;11.314;2023-03-21T23:22:21;100325.00;;;11.78;80.88
60258;BME280;46115;44.484;11.314;2023-03-21T23:26:24;100316.84;;;11.82;79.89
60258;BME280;46115;44.484;11.314;2023-03-21T23:30:26;100313.13;;;11.69;80.93
60258;BME280;46115;44.484;11.314;2023-03-21T23:34:29;100312.78;;;11.75;80.90
60258;BME280;46115;44.484;11.314;2023-03-21T23:38:33;100310.81;;;11.63;81.21
60258;BME280;46115;44.484;11.314;2023-03-21T23:42:35;100309.19;;;11.76;82.16
60258;BME280;46115;44.484;11.314;2023-03-21T23:46:37;100316.78;;;11.67;81.49
60258;BME280;46115;44.484;11.314;2023-03-21T23:50:40;100316.44;;;11.73;80.76
60258;BME280;46115;44.484;11.314;2023-03-21T23:54:44;100303.38;;;11.70;81.12
60258;BME280;46115;44.484;11.314;2023-03-21T23:58:47;100316.19;;;11.62;81.28
